Tioga — WDE7327 — position and weather

sailwx.info

Track history (hours):
 
Tides and Currents Weather Stations Pressure Air Temp Water Temp Dewpoint Dewpoint Depression Visibility Wind Speed Wind Dir Waves Ship Positions

Tioga

Owner: Crowley Marine Services, SEATTLE, WA. More information available from US FCC via Universal Licensing System and Coast Guard Vessel Documentation Center.

Last reported at 2017-Sep-26 19:57 UTC. Time now 2017-Sep-26 21:48 UTC.
Position N 32°42' W 117°09'.

Length 30 m; draft 4.2 m.

Type: Tug. MMSI: 366888800.

Date/timePositionNaut miles runAvg speedWind from/ knotsBaromVisibWave heightAir tempDewpointWater temp
2017-Sep-26 19:57N 32°42' W 117°09'0 0.0
2017-Sep-26 19:30N 32°42' W 117°09'0 0.0
2017-Sep-26 18:59N 32°42' W 117°09'0 0.0
2017-Sep-26 18:30N 32°42' W 117°09'3 1.1
2017-Sep-26 16:02N 32°40' W 117°08'3 0.6
2017-Sep-26 11:17N 32°42' W 117°09'0 0.0
2017-Sep-26 10:59N 32°42' W 117°09'3 0.1
2017-Sep-25 02:13N 32°39' W 117°07'2 7.7
2017-Sep-25 02:00N 32°41' W 117°08'2 0.5
2017-Sep-24 22:34N 32°42' W 117°10'0 0.0
2017-Sep-24 22:30N 32°42' W 117°10'0 0.0
2017-Sep-24 22:00N 32°42' W 117°10'0 0.5
2017-Sep-24 21:09N 32°42' W 117°09'0 0.1
2017-Sep-24 17:31N 32°41' W 117°09'1 0.0
2017-Sep-23 19:36N 32°41' W 117°08'2 0.0
2017-Sep-21 18:47N 32°39' W 117°07'1 0.2
2017-Sep-21 15:13N 32°40' W 117°07'1 1.0
2017-Sep-21 14:08N 32°41' W 117°08'1 3.6
2017-Sep-21 13:50N 32°41' W 117°09'0 0.3
2017-Sep-21 12:34N 32°42' W 117°09'110.2
2017-Sep-21 12:28N 32°41' W 117°08'1 0.0
2017-Sep-19 20:38N 32°42' W 117°09'2 2.3
2017-Sep-19 19:36N 32°40' W 117°08'1 4.1
2017-Sep-19 19:25N 32°40' W 117°08'3 0.1
2017-Sep-17 21:54N 32°42' W 117°10'  
Track history (hours):
 
Tides and Currents Weather Stations Pressure Air Temp Water Temp Dewpoint Dewpoint Depression Visibility Wind Speed Wind Dir Waves Ship Positions

Tioga

Owner: Crowley Marine Services, SEATTLE, WA. More information available from US FCC via Universal Licensing System and Coast Guard Vessel Documentation Center.

Last reported at 2017-Sep-26 19:57 UTC. Time now 2017-Sep-26 21:48 UTC.
Position N 32°42' W 117°09'.

Length 30 m; draft 4.2 m.

Type: Tug. MMSI: 366888800.

Date/timePositionNaut miles runAvg speedWind from/ knotsBaromVisibWave heightAir tempDewpointWater temp
2017-Sep-26 19:57N 32°42' W 117°09'0 0.0
2017-Sep-26 19:30N 32°42' W 117°09'0 0.0
2017-Sep-26 18:59N 32°42' W 117°09'0 0.0
2017-Sep-26 18:30N 32°42' W 117°09'3 1.1
2017-Sep-26 16:02N 32°40' W 117°08'3 0.6
2017-Sep-26 11:17N 32°42' W 117°09'0 0.0
2017-Sep-26 10:59N 32°42' W 117°09'3 0.1
2017-Sep-25 02:13N 32°39' W 117°07'2 7.7
2017-Sep-25 02:00N 32°41' W 117°08'2 0.5
2017-Sep-24 22:34N 32°42' W 117°10'0 0.0
2017-Sep-24 22:30N 32°42' W 117°10'0 0.0
2017-Sep-24 22:00N 32°42' W 117°10'0 0.5
2017-Sep-24 21:09N 32°42' W 117°09'0 0.1
2017-Sep-24 17:31N 32°41' W 117°09'1 0.0
2017-Sep-23 19:36N 32°41' W 117°08'2 0.0
2017-Sep-21 18:47N 32°39' W 117°07'1 0.2
2017-Sep-21 15:13N 32°40' W 117°07'1 1.0
2017-Sep-21 14:08N 32°41' W 117°08'1 3.6
2017-Sep-21 13:50N 32°41' W 117°09'0 0.3
2017-Sep-21 12:34N 32°42' W 117°09'110.2
2017-Sep-21 12:28N 32°41' W 117°08'1 0.0
2017-Sep-19 20:38N 32°42' W 117°09'2 2.3
2017-Sep-19 19:36N 32°40' W 117°08'1 4.1
2017-Sep-19 19:25N 32°40' W 117°08'3 0.1
2017-Sep-17 21:54N 32°42' W 117°10'  

Dump ship's entire track history